createdAt,value
2022-10-05T00:02:24.704Z,14.00
2022-10-05T00:04:57.146Z,14.00
2022-10-05T00:07:25.188Z,14.00
2022-10-05T00:09:57.535Z,14.00
2022-10-05T00:12:26.628Z,14.00
2022-10-05T00:14:58.167Z,14.00
2022-10-05T00:17:27.504Z,14.00
2022-10-05T00:19:55.114Z,14.10
2022-10-05T00:22:27.574Z,14.10
2022-10-05T00:25:00.884Z,14.10
2022-10-05T00:27:39.161Z,14.00
2022-10-05T00:30:20.335Z,14.00
2022-10-05T00:32:47.750Z,14.00
2022-10-05T00:35:16.233Z,13.90
2022-10-05T00:37:45.576Z,13.90
2022-10-05T00:40:25.028Z,13.90
2022-10-05T00:43:16.843Z,13.90
2022-10-05T00:46:11.501Z,13.80
2022-10-05T00:48:45.231Z,13.90
2022-10-05T00:51:28.427Z,13.80
2022-10-05T00:54:26.709Z,13.80
2022-10-05T00:57:21.374Z,13.80
2022-10-05T01:00:03.778Z,13.70
2022-10-05T01:02:38.611Z,13.70
2022-10-05T01:05:39.928Z,13.70
2022-10-05T01:08:25.787Z,13.70
2022-10-05T01:11:01.899Z,13.70
2022-10-05T01:13:51.241Z,13.80
2022-10-05T01:16:25.996Z,13.70
2022-10-05T01:19:26.496Z,13.70
2022-10-05T01:22:02.288Z,13.80
2022-10-05T01:24:35.118Z,13.80
2022-10-05T01:27:26.727Z,13.80
2022-10-05T01:30:15.809Z,13.80
2022-10-05T01:33:14.550Z,13.80
2022-10-05T01:35:49.609Z,13.80
2022-10-05T01:38:41.691Z,13.80
2022-10-05T01:41:34.716Z,13.70
2022-10-05T01:44:26.089Z,13.70
2022-10-05T01:47:07.850Z,13.70
2022-10-05T01:49:42.767Z,13.70
2022-10-05T01:52:32.607Z,13.70
2022-10-05T01:55:28.881Z,13.70
2022-10-05T01:58:14.869Z,13.70
2022-10-05T02:01:09.622Z,13.50
2022-10-05T02:03:43.735Z,13.80
2022-10-05T02:06:20.796Z,13.80
2022-10-05T02:08:50.163Z,13.90
2022-10-05T02:11:19.295Z,13.90
2022-10-05T02:13:59.335Z,13.90
2022-10-05T02:16:30.254Z,14.00
2022-10-05T02:19:03.522Z,13.90
2022-10-05T02:21:33.604Z,14.00
2022-10-05T02:24:07.006Z,13.90
2022-10-05T02:26:37.119Z,14.00
2022-10-05T02:29:09.587Z,14.00
2022-10-05T02:31:57.704Z,14.00
2022-10-05T02:34:40.691Z,14.10
2022-10-05T02:37:10.329Z,14.10
2022-10-05T02:40:03.840Z,14.10
2022-10-05T02:42:52.395Z,14.10
2022-10-05T02:45:31.621Z,14.20
2022-10-05T02:48:35.759Z,14.20
2022-10-05T02:51:24.486Z,14.20
2022-10-05T02:54:06.341Z,14.20
2022-10-05T02:56:44.245Z,14.20
2022-10-05T02:59:26.028Z,14.20
2022-10-05T03:02:13.459Z,14.20
2022-10-05T03:05:13.376Z,14.20
2022-10-05T03:08:02.291Z,14.20
2022-10-05T03:11:11.545Z,14.20
2022-10-05T03:13:46.927Z,14.30
2022-10-05T03:16:23.452Z,14.30
2022-10-05T03:19:15.513Z,14.30
2022-10-05T03:22:08.674Z,14.30
2022-10-05T03:25:15.931Z,14.30
2022-10-05T03:27:54.514Z,14.30
2022-10-05T03:30:23.807Z,14.30
2022-10-05T03:32:50.727Z,14.30
2022-10-05T03:35:41.574Z,14.30
2022-10-05T03:38:37.188Z,14.30
2022-10-05T03:41:07.967Z,14.30
2022-10-05T03:43:45.200Z,14.30
2022-10-05T03:46:48.823Z,14.30
2022-10-05T03:49:34.150Z,14.30
2022-10-05T03:52:27.481Z,14.30
2022-10-05T03:55:12.919Z,14.30
2022-10-05T03:57:42.578Z,14.30
2022-10-05T04:00:20.329Z,14.20
2022-10-05T04:02:53.415Z,14.20
2022-10-05T04:05:25.611Z,14.10
2022-10-05T04:08:00.384Z,14.20
2022-10-05T04:10:41.993Z,14.10
2022-10-05T04:13:23.766Z,14.10
2022-10-05T04:15:57.928Z,14.10
2022-10-05T04:18:56.886Z,14.20
2022-10-05T04:21:28.435Z,14.10
2022-10-05T04:24:13.427Z,14.10
2022-10-05T04:26:54.510Z,14.10
2022-10-05T04:29:40.415Z,14.10
2022-10-05T04:32:19.358Z,14.00
2022-10-05T04:34:55.551Z,14.00
2022-10-05T04:37:36.868Z,14.00
2022-10-05T04:40:18.416Z,13.90
2022-10-05T04:43:05.500Z,13.90
2022-10-05T04:45:54.220Z,13.80
2022-10-05T04:48:39.137Z,13.80
2022-10-05T04:51:18.118Z,13.90
2022-10-05T04:53:56.821Z,13.90
2022-10-05T04:56:40.248Z,13.80
2022-10-05T04:59:22.329Z,13.80
2022-10-05T05:02:10.991Z,13.80
2022-10-05T05:05:02.709Z,13.80
2022-10-05T05:07:54.196Z,13.90
2022-10-05T05:10:45.221Z,13.90
2022-10-05T05:13:33.736Z,13.90
2022-10-05T05:16:25.790Z,13.80
2022-10-05T05:19:27.002Z,13.90
2022-10-05T05:21:59.985Z,13.80
2022-10-05T05:24:53.459Z,13.80
2022-10-05T05:28:09.464Z,13.80
2022-10-05T05:30:56.475Z,13.70
2022-10-05T05:33:36.491Z,13.70
2022-10-05T05:36:40.061Z,13.70
2022-10-05T05:39:19.058Z,13.70
2022-10-05T05:42:03.389Z,13.70
2022-10-05T05:44:44.430Z,13.70
2022-10-05T05:47:35.327Z,13.80
2022-10-05T05:50:28.177Z,13.80
2022-10-05T05:53:01.413Z,13.80
2022-10-05T05:55:31.199Z,13.80
2022-10-05T05:58:05.888Z,13.90
2022-10-05T06:00:50.419Z,13.90
2022-10-05T06:03:30.661Z,14.00
2022-10-05T06:06:05.043Z,14.00
2022-10-05T06:08:45.013Z,14.00
2022-10-05T06:11:17.713Z,14.10
2022-10-05T06:13:45.133Z,14.10
2022-10-05T06:16:40.933Z,14.20
2022-10-05T06:19:14.295Z,14.30
2022-10-05T06:22:13.561Z,14.50
2022-10-05T06:25:00.729Z,14.70
2022-10-05T06:27:37.216Z,14.80
2022-10-05T06:30:14.317Z,15.00
2022-10-05T06:32:50.122Z,15.10
2022-10-05T06:35:35.787Z,15.20
2022-10-05T06:38:13.772Z,15.30
2022-10-05T06:40:56.115Z,15.50
2022-10-05T06:43:43.737Z,15.60
2022-10-05T06:46:35.953Z,15.70
2022-10-05T06:49:14.702Z,15.90
2022-10-05T06:51:50.386Z,16.10
2022-10-05T06:54:26.045Z,16.20
2022-10-05T06:57:15.266Z,16.40
2022-10-05T06:59:59.017Z,16.60
2022-10-05T07:02:57.732Z,16.80
2022-10-05T07:05:50.492Z,16.90
2022-10-05T07:08:38.883Z,17.00
2022-10-05T07:11:05.776Z,17.10
2022-10-05T07:13:54.363Z,17.20
2022-10-05T07:17:19.812Z,17.30
2022-10-05T07:20:16.012Z,17.30
2022-10-05T07:22:52.370Z,17.30
2022-10-05T07:25:28.901Z,17.30
2022-10-05T07:28:18.250Z,17.30
2022-10-05T07:31:09.651Z,17.20
2022-10-05T07:33:59.550Z,17.20
2022-10-05T07:37:24.490Z,17.10
2022-10-05T07:40:19.559Z,17.10
2022-10-05T07:43:16.956Z,17.20
2022-10-05T07:46:07.460Z,17.30
2022-10-05T07:48:58.038Z,17.50
2022-10-05T07:51:41.394Z,17.50
2022-10-05T07:54:42.392Z,17.70
2022-10-05T07:57:32.321Z,17.80
2022-10-05T08:00:59.453Z,17.80
2022-10-05T08:03:42.839Z,17.80
2022-10-05T08:06:16.706Z,17.90
2022-10-05T08:08:54.405Z,17.90
2022-10-05T08:11:32.778Z,18.00
2022-10-05T08:14:06.657Z,18.10
2022-10-05T08:16:38.001Z,18.20
2022-10-05T08:19:19.651Z,18.30
2022-10-05T08:21:59.695Z,18.50
2022-10-05T08:24:38.973Z,18.50
2022-10-05T08:27:29.111Z,18.40
2022-10-05T08:30:01.601Z,18.30
2022-10-05T08:32:55.418Z,18.30
2022-10-05T08:35:36.130Z,18.30
2022-10-05T08:38:09.783Z,18.30
2022-10-05T08:40:54.988Z,18.20
2022-10-05T08:43:43.609Z,18.20
2022-10-05T08:46:36.198Z,18.30
2022-10-05T08:49:24.415Z,18.40
2022-10-05T08:52:03.449Z,18.30
2022-10-05T08:54:49.297Z,18.30
2022-10-05T08:57:44.075Z,18.30
2022-10-05T09:00:25.521Z,18.30
2022-10-05T09:03:26.106Z,18.30
2022-10-05T09:06:21.059Z,18.30
2022-10-05T09:09:13.888Z,18.20
2022-10-05T09:11:53.364Z,18.30
2022-10-05T09:14:39.389Z,18.30
2022-10-05T09:17:32.339Z,18.20
2022-10-05T09:20:17.596Z,18.20
2022-10-05T09:23:10.914Z,18.30
2022-10-05T09:25:59.547Z,18.40
2022-10-05T09:28:38.422Z,18.50
2022-10-05T09:31:14.453Z,18.50
2022-10-05T09:34:00.727Z,18.60
2022-10-05T09:36:46.486Z,18.70
2022-10-05T09:39:13.319Z,18.80
2022-10-05T09:41:52.309Z,19.00
2022-10-05T09:44:47.932Z,19.20
2022-10-05T09:47:47.248Z,19.50
2022-10-05T09:50:14.455Z,19.80
2022-10-05T09:52:57.307Z,20.10
2022-10-05T09:55:33.732Z,20.20
2022-10-05T09:58:31.440Z,20.30
2022-10-05T10:01:15.498Z,20.40
2022-10-05T10:04:12.906Z,20.50
2022-10-05T10:07:14.069Z,20.50
2022-10-05T10:10:09.052Z,20.60
2022-10-05T10:12:48.401Z,20.80
2022-10-05T10:15:21.501Z,20.70
2022-10-05T10:18:03.709Z,20.60
2022-10-05T10:21:17.836Z,20.70
2022-10-05T10:24:17.843Z,20.80
2022-10-05T10:27:22.786Z,20.80
2022-10-05T10:30:13.920Z,20.90
2022-10-05T10:32:42.260Z,20.90
2022-10-05T10:35:49.312Z,21.00
2022-10-05T10:38:32.532Z,21.10
2022-10-05T10:41:19.775Z,21.20
2022-10-05T10:44:31.428Z,21.40
2022-10-05T10:47:17.458Z,21.50
2022-10-05T10:49:53.164Z,21.50
2022-10-05T10:52:42.863Z,21.50
2022-10-05T10:55:37.881Z,21.40
2022-10-05T10:58:35.000Z,21.40
2022-10-05T11:01:39.515Z,21.50
2022-10-05T11:04:28.308Z,21.40
2022-10-05T11:07:07.286Z,21.50
2022-10-05T11:10:20.345Z,21.60
2022-10-05T11:13:06.460Z,21.60
2022-10-05T11:19:05.506Z,21.60
2022-10-05T11:21:37.541Z,21.30
2022-10-05T11:24:38.558Z,21.30
2022-10-05T11:27:26.862Z,21.20
2022-10-05T11:30:50.305Z,21.20
2022-10-05T11:33:27.026Z,21.10
2022-10-05T11:36:19.419Z,20.90
2022-10-05T11:38:52.344Z,20.90
2022-10-05T11:41:53.230Z,20.90
2022-10-05T11:44:26.278Z,21.00
2022-10-05T11:47:11.994Z,20.90
2022-10-05T11:49:44.608Z,21.00
2022-10-05T11:52:17.511Z,21.20
2022-10-05T11:55:11.788Z,21.30
2022-10-05T11:57:56.071Z,21.40
2022-10-05T12:00:26.560Z,21.50
2022-10-05T12:02:59.620Z,21.50
2022-10-05T12:06:00.648Z,21.50
2022-10-05T12:08:42.559Z,21.60
2022-10-05T12:11:12.448Z,21.60
2022-10-05T12:14:20.309Z,21.70
2022-10-05T12:17:20.139Z,21.70
2022-10-05T12:20:12.968Z,21.80
2022-10-05T12:23:15.893Z,21.90
2022-10-05T12:25:50.025Z,21.90
2022-10-05T12:28:22.283Z,21.80
2022-10-05T12:31:19.367Z,21.80
2022-10-05T12:33:56.649Z,21.70
2022-10-05T12:37:04.152Z,21.60
2022-10-05T12:39:53.852Z,21.60
2022-10-05T12:43:04.910Z,21.60
2022-10-05T12:45:52.604Z,21.60
2022-10-05T12:48:52.476Z,21.60
2022-10-05T12:51:43.296Z,21.60
2022-10-05T12:55:08.034Z,21.60
2022-10-05T12:57:59.725Z,21.50
2022-10-05T13:00:28.506Z,21.00
2022-10-05T13:03:09.096Z,21.10
2022-10-05T13:06:02.462Z,21.00
2022-10-05T13:08:40.196Z,21.00
2022-10-05T13:11:32.074Z,21.00
2022-10-05T13:14:16.534Z,21.00
2022-10-05T13:17:13.616Z,21.00
2022-10-05T13:19:47.062Z,20.80
2022-10-05T13:22:28.931Z,20.60
2022-10-05T13:25:08.702Z,20.50
2022-10-05T13:27:40.987Z,20.30
2022-10-05T13:30:21.525Z,20.20
2022-10-05T13:33:07.614Z,20.00
2022-10-05T13:35:45.289Z,19.90
2022-10-05T13:38:56.628Z,19.80
2022-10-05T13:41:36.571Z,19.70
2022-10-05T13:44:38.698Z,19.50
2022-10-05T13:47:13.465Z,19.50
2022-10-05T13:50:04.281Z,19.40
2022-10-05T13:52:43.041Z,19.30
2022-10-05T13:55:32.672Z,19.30
2022-10-05T13:58:24.258Z,19.30
2022-10-05T14:00:58.480Z,19.30
2022-10-05T14:03:37.140Z,19.20
2022-10-05T14:06:14.056Z,19.20
2022-10-05T14:08:52.095Z,19.10
2022-10-05T14:11:31.441Z,19.10
2022-10-05T14:14:28.213Z,19.10
2022-10-05T14:16:57.467Z,19.10
2022-10-05T14:19:26.630Z,19.10
2022-10-05T14:22:03.707Z,19.10
2022-10-05T14:24:44.077Z,19.10
2022-10-05T14:27:30.507Z,19.10
2022-10-05T14:30:11.279Z,19.10
2022-10-05T14:32:59.506Z,19.10
2022-10-05T14:35:30.884Z,19.00
2022-10-05T14:38:00.973Z,19.00
2022-10-05T14:40:29.838Z,19.00
2022-10-05T14:42:58.914Z,19.00
2022-10-05T14:45:30.213Z,18.90
2022-10-05T14:48:01.607Z,19.00
2022-10-05T14:50:32.433Z,18.90
2022-10-05T14:52:59.493Z,18.90
2022-10-05T14:55:38.183Z,19.00
2022-10-05T14:58:23.769Z,18.90
2022-10-05T15:01:11.371Z,18.90
2022-10-05T15:04:04.233Z,18.90
2022-10-05T15:06:46.891Z,18.90
2022-10-05T15:09:32.691Z,18.90
2022-10-05T15:12:02.147Z,18.90
2022-10-05T15:14:37.079Z,18.90
2022-10-05T15:17:20.194Z,18.90
2022-10-05T15:20:09.609Z,18.90
2022-10-05T15:22:59.390Z,18.90
2022-10-05T15:25:40.305Z,18.90
2022-10-05T15:28:45.371Z,18.90
2022-10-05T15:31:40.078Z,18.80
2022-10-05T15:34:20.102Z,18.90
2022-10-05T15:37:16.123Z,18.80
2022-10-05T15:39:54.730Z,18.80
2022-10-05T15:42:39.367Z,18.70
2022-10-05T15:45:24.818Z,18.70
2022-10-05T15:48:20.269Z,18.70
2022-10-05T15:51:18.126Z,18.70
2022-10-05T15:54:28.424Z,18.70
2022-10-05T15:57:10.225Z,18.60
2022-10-05T16:00:11.150Z,18.60
2022-10-05T16:03:05.093Z,18.70
2022-10-05T16:06:03.089Z,18.60
2022-10-05T16:08:50.987Z,18.60
2022-10-05T16:11:36.590Z,18.60
2022-10-05T16:14:27.957Z,18.50
2022-10-05T16:17:16.524Z,18.50
2022-10-05T16:19:58.877Z,18.50
2022-10-05T16:22:43.432Z,18.40
2022-10-05T16:25:25.788Z,18.40
2022-10-05T16:28:05.199Z,18.30
2022-10-05T16:30:46.112Z,18.30
2022-10-05T16:33:29.680Z,18.20
2022-10-05T16:36:24.665Z,18.20
2022-10-05T16:39:12.807Z,18.20
2022-10-05T16:42:05.448Z,18.10
2022-10-05T16:44:38.332Z,18.10
2022-10-05T16:47:30.212Z,18.00
2022-10-05T16:50:11.989Z,18.00
2022-10-05T16:52:41.727Z,17.90
2022-10-05T16:55:17.578Z,17.90
2022-10-05T16:57:51.630Z,17.80
2022-10-05T17:00:21.718Z,17.80
2022-10-05T17:03:11.283Z,17.80
2022-10-05T17:05:47.896Z,17.70
2022-10-05T17:08:40.981Z,17.70
2022-10-05T17:11:29.733Z,17.40
2022-10-05T17:14:18.694Z,17.60
2022-10-05T17:17:14.597Z,17.60
2022-10-05T17:20:07.081Z,17.60
2022-10-05T17:22:46.599Z,17.60
2022-10-05T17:25:22.425Z,17.60
2022-10-05T17:27:56.570Z,17.60
2022-10-05T17:30:29.531Z,17.60
2022-10-05T17:33:17.839Z,17.60
2022-10-05T17:35:58.285Z,17.60
2022-10-05T17:38:31.603Z,17.60
2022-10-05T17:41:05.507Z,17.50
2022-10-05T17:43:33.840Z,17.50
2022-10-05T17:46:06.805Z,17.50
2022-10-05T17:49:06.787Z,17.40
2022-10-05T17:52:12.353Z,17.40
2022-10-05T17:55:03.739Z,17.40
2022-10-05T17:57:32.133Z,17.40
2022-10-05T18:00:02.368Z,17.40
2022-10-05T18:02:36.371Z,17.40
2022-10-05T18:05:06.851Z,17.40
2022-10-05T18:13:45.412Z,17.40
2022-10-05T18:16:54.008Z,17.50
2022-10-05T18:19:22.554Z,17.30
2022-10-05T18:22:17.731Z,17.50
2022-10-05T18:25:05.977Z,17.50
2022-10-05T18:27:42.747Z,17.50
2022-10-05T18:30:26.205Z,17.50
2022-10-05T18:33:25.614Z,17.50
2022-10-05T18:36:18.243Z,17.50
2022-10-05T18:39:18.873Z,17.50
2022-10-05T18:42:07.440Z,17.50
2022-10-05T18:44:47.732Z,17.50
2022-10-05T18:47:39.029Z,17.50
2022-10-05T18:50:21.360Z,17.50
2022-10-05T18:53:13.704Z,17.50
2022-10-05T18:56:08.487Z,17.50
2022-10-05T18:59:05.373Z,17.50
2022-10-05T19:07:55.840Z,17.50
2022-10-05T19:10:37.963Z,17.50
2022-10-05T19:13:30.974Z,17.50
2022-10-05T19:16:15.904Z,17.50
2022-10-05T19:19:09.671Z,17.70
2022-10-05T19:21:58.873Z,17.50
2022-10-05T19:36:21.971Z,17.50
2022-10-05T19:38:55.380Z,17.50
2022-10-05T19:47:46.821Z,17.50
2022-10-05T19:50:23.855Z,17.40
2022-10-05T19:52:59.592Z,17.40
2022-10-05T19:55:43.782Z,17.70
2022-10-05T19:58:25.960Z,17.40
2022-10-05T20:01:09.159Z,17.40
2022-10-05T20:03:50.230Z,17.40
2022-10-05T20:09:22.873Z,17.30
2022-10-05T20:11:56.769Z,17.30
2022-10-05T20:14:34.353Z,17.30
2022-10-05T20:20:56.765Z,17.30
2022-10-05T20:23:25.902Z,17.30
2022-10-05T20:26:11.947Z,17.40
2022-10-05T20:28:39.070Z,17.20
2022-10-05T20:31:07.896Z,17.20
2022-10-05T20:33:34.870Z,17.20
2022-10-05T20:36:03.432Z,17.20
2022-10-05T20:38:31.508Z,17.20
2022-10-05T20:40:58.738Z,17.20
2022-10-05T20:43:25.714Z,17.10
2022-10-05T20:45:53.775Z,17.10
2022-10-05T20:48:20.715Z,17.10
2022-10-05T20:50:47.623Z,17.10
2022-10-05T20:53:14.583Z,17.00
2022-10-05T20:55:43.037Z,17.10
2022-10-05T20:58:11.070Z,17.00
2022-10-05T21:00:56.414Z,17.00
2022-10-05T21:03:23.339Z,17.00
2022-10-05T21:05:50.289Z,17.00
2022-10-05T21:08:17.871Z,17.00
2022-10-05T21:10:44.748Z,17.00
2022-10-05T21:13:11.655Z,17.00
2022-10-05T21:15:38.561Z,17.00
2022-10-05T21:18:05.674Z,16.90
2022-10-05T21:20:33.115Z,17.00
2022-10-05T21:23:00.051Z,16.90
2022-10-05T21:25:27.080Z,16.90
2022-10-05T21:27:54.323Z,16.90
2022-10-05T21:30:21.213Z,17.00
2022-10-05T21:32:48.157Z,17.10
2022-10-05T21:35:15.185Z,17.20
2022-10-05T21:37:42.066Z,17.30
2022-10-05T21:40:09.415Z,17.40
2022-10-05T21:42:36.306Z,17.50
2022-10-05T21:45:03.667Z,17.60
2022-10-05T21:47:30.570Z,17.60
2022-10-05T21:49:57.547Z,17.70
2022-10-05T21:52:24.584Z,17.70
2022-10-05T21:54:51.591Z,17.60
2022-10-05T21:57:18.620Z,17.60
2022-10-05T21:59:45.604Z,17.70
2022-10-05T22:02:12.581Z,17.80
2022-10-05T22:04:39.592Z,17.70
2022-10-05T22:07:20.443Z,17.80
2022-10-05T22:09:51.475Z,17.80
2022-10-05T22:12:19.891Z,17.90
2022-10-05T22:14:47.113Z,17.90
2022-10-05T22:17:25.309Z,18.00
2022-10-05T22:19:52.158Z,18.00
2022-10-05T22:22:19.103Z,18.00
2022-10-05T22:24:46.026Z,18.00
2022-10-05T22:27:13.748Z,18.00
2022-10-05T22:29:41.606Z,18.00
2022-10-05T22:32:08.781Z,18.00
2022-10-05T22:34:35.639Z,18.00
2022-10-05T22:37:04.589Z,18.00
2022-10-05T22:39:31.501Z,18.00
2022-10-05T22:41:58.980Z,18.00
2022-10-05T22:44:25.807Z,18.00
2022-10-05T22:46:52.706Z,18.00
2022-10-05T22:49:19.878Z,18.00
2022-10-05T22:51:48.074Z,18.00
2022-10-05T22:54:15.511Z,18.10
2022-10-05T22:56:42.643Z,18.10
2022-10-05T22:59:09.856Z,18.20
2022-10-05T23:01:36.775Z,18.20
2022-10-05T23:04:04.499Z,18.20
2022-10-05T23:06:31.620Z,18.20
2022-10-05T23:08:58.406Z,18.10
2022-10-05T23:11:27.677Z,18.00
2022-10-05T23:13:56.790Z,17.90
2022-10-05T23:16:26.148Z,17.80
2022-10-05T23:18:54.215Z,17.70
2022-10-05T23:21:22.759Z,17.70
2022-10-05T23:23:53.317Z,17.60
2022-10-05T23:26:22.930Z,17.60
2022-10-05T23:28:50.227Z,17.60
2022-10-05T23:31:20.013Z,17.60
2022-10-05T23:33:47.238Z,17.60
2022-10-05T23:36:17.464Z,17.60
2022-10-05T23:38:44.943Z,17.60
2022-10-05T23:41:12.284Z,17.60
2022-10-05T23:43:39.293Z,17.70
2022-10-05T23:46:07.514Z,17.80
2022-10-05T23:48:37.933Z,17.80
2022-10-05T23:51:10.778Z,17.90
2022-10-05T23:53:37.864Z,18.00
2022-10-05T23:56:05.004Z,18.00
2022-10-05T23:58:32.202Z,18.00
